Time;durP1;ratioP1;P1;durP2;ratioP2;P2;SDS_P1;SDS_P2;PMS_P1;PMS_P2;Temp;Humidity;BMP_temperature;BMP_pressure;BME280_temperature;BME280_humidity;BME280_pressure;Samples;Min_cycle;Max_cycle;Signal;HPM_P1;HPM_P2
2023/08/04 00:00:47;;;;;;;2.13;0.60;;;;;;;;;;5077354;28;20040;-62
2023/08/04 00:03:17;;;;;;;2.25;0.82;;;;;;;;;;5080187;28;20051;-61
2023/08/04 00:05:46;;;;;;;1.90;0.60;;;;;;;;;;5077265;28;20040;-64
2023/08/04 00:08:14;;;;;;;6.88;0.93;;;;;;;;;;5079470;28;20550;-62
2023/08/04 00:10:42;;;;;;;2.17;0.73;;;;;;;;;;5078358;28;20084;-63
2023/08/04 00:13:11;;;;;;;1.63;0.73;;;;;;;;;;5080633;28;20641;-61
2023/08/04 00:15:39;;;;;;;2.88;0.70;;;;;;;;;;5079556;28;20056;-61
2023/08/04 00:18:07;;;;;;;1.25;0.75;;;;;;;;;;5075910;28;20071;-62
2023/08/04 00:20:37;;;;;;;1.35;0.50;;;;;;;;;;5076422;28;20051;-66
2023/08/04 00:23:06;;;;;;;2.05;0.80;;;;;;;;;;5076437;28;20055;-63
2023/08/04 00:25:34;;;;;;;1.17;0.52;;;;;;;;;;5075349;28;20080;-71
2023/08/04 00:28:02;;;;;;;1.45;0.60;;;;;;;;;;5078832;28;20210;-62
2023/08/04 00:30:31;;;;;;;2.00;0.75;;;;;;;;;;5078390;28;20105;-63
2023/08/04 00:32:59;;;;;;;2.13;0.50;;;;;;;;;;5082258;28;20036;-64
2023/08/04 00:35:27;;;;;;;3.90;0.50;;;;;;;;;;5077157;28;20078;-62
2023/08/04 00:37:57;;;;;;;2.25;0.70;;;;;;;;;;5078675;28;20110;-62
2023/08/04 00:40:28;;;;;;;1.52;0.70;;;;;;;;;;5077653;28;20048;-62
2023/08/04 00:42:57;;;;;;;1.40;0.70;;;;;;;;;;5076571;28;20060;-63
2023/08/04 00:45:27;;;;;;;3.03;1.50;;;;;;;;;;5077691;28;20082;-65
2023/08/04 00:47:56;;;;;;;2.78;0.60;;;;;;;;;;5080575;28;20052;-63
2023/08/04 00:50:25;;;;;;;3.28;0.70;;;;;;;;;;5084508;28;20481;-62
2023/08/04 00:52:53;;;;;;;2.40;0.70;;;;;;;;;;5078200;28;20081;-62
2023/08/04 00:55:23;;;;;;;3.42;0.70;;;;;;;;;;5078305;28;20500;-63
2023/08/04 00:57:52;;;;;;;2.10;0.80;;;;;;;;;;5077409;28;20084;-64
2023/08/04 01:00:21;;;;;;;1.45;0.50;;;;;;;;;;5078060;28;20056;-62
2023/08/04 01:02:50;;;;;;;2.30;0.60;;;;;;;;;;5089818;22;20057;-61
2023/08/04 01:05:19;;;;;;;1.65;0.75;;;;;;;;;;5058990;28;20143;-60
2023/08/04 01:07:51;;;;;;;2.72;0.70;;;;;;;;;;5068028;28;20088;-62
2023/08/04 01:10:21;;;;;;;1.08;0.47;;;;;;;;;;5067740;28;20053;-65
2023/08/04 01:12:53;;;;;;;3.47;0.50;;;;;;;;;;5058842;28;20503;-60
2023/08/04 01:15:21;;;;;;;2.90;0.70;;;;;;;;;;5062882;28;20048;-60
2023/08/04 01:17:49;;;;;;;1.00;0.68;;;;;;;;;;5061584;28;20107;-60
2023/08/04 01:20:18;;;;;;;3.22;0.95;;;;;;;;;;5059155;28;20080;-60
2023/08/04 01:22:48;;;;;;;2.20;0.63;;;;;;;;;;5070981;28;20492;-63
2023/08/04 01:25:17;;;;;;;1.48;0.77;;;;;;;;;;5059677;28;20075;-62
2023/08/04 01:27:46;;;;;;;1.85;0.60;;;;;;;;;;5055790;28;20238;-60
2023/08/04 01:30:20;;;;;;;0.85;0.65;;;;;;;;;;5055382;28;20611;-62
2023/08/04 01:32:48;;;;;;;1.90;0.65;;;;;;;;;;5057861;28;20060;-60
2023/08/04 01:35:17;;;;;;;3.70;0.70;;;;;;;;;;5059985;28;20140;-60
2023/08/04 01:37:46;;;;;;;3.22;0.63;;;;;;;;;;5062935;28;20106;-60
2023/08/04 01:40:15;;;;;;;2.60;0.70;;;;;;;;;;5056985;28;20090;-60
2023/08/04 01:42:44;;;;;;;3.50;0.70;;;;;;;;;;5060744;28;20098;-61
2023/08/04 01:45:12;;;;;;;2.55;0.60;;;;;;;;;;5056840;28;20084;-62
2023/08/04 01:47:41;;;;;;;3.17;0.70;;;;;;;;;;5065585;28;20049;-60
2023/08/04 01:50:10;;;;;;;2.60;0.68;;;;;;;;;;5061764;28;20340;-62
2023/08/04 01:52:38;;;;;;;2.20;0.60;;;;;;;;;;5064829;28;20338;-60
2023/08/04 01:55:07;;;;;;;4.38;0.65;;;;;;;;;;5064322;28;20123;-61
2023/08/04 01:57:37;;;;;;;5.45;0.60;;;;;;;;;;5064175;28;20523;-62
2023/08/04 02:00:06;;;;;;;3.60;0.57;;;;;;;;;;5054032;28;20077;-64
2023/08/04 02:02:35;;;;;;;1.83;0.50;;;;;;;;;;5063419;28;20048;-61
2023/08/04 02:05:03;;;;;;;2.15;0.63;;;;;;;;;;5064247;28;20079;-61
2023/08/04 02:07:32;;;;;;;3.25;0.70;;;;;;;;;;5062728;28;20115;-61
2023/08/04 02:10:00;;;;;;;2.58;0.50;;;;;;;;;;5061319;28;20095;-60
2023/08/04 02:12:29;;;;;;;2.70;0.75;;;;;;;;;;5068047;28;20479;-60
2023/08/04 02:15:00;;;;;;;3.08;1.02;;;;;;;;;;5066914;28;20519;-61
2023/08/04 02:17:28;;;;;;;1.70;0.73;;;;;;;;;;5061945;28;20048;-60
2023/08/04 02:19:56;;;;;;;2.10;0.60;;;;;;;;;;5054537;28;20056;-62
2023/08/04 02:22:25;;;;;;;2.25;0.93;;;;;;;;;;5061870;28;20090;-62
2023/08/04 02:24:53;;;;;;;2.63;0.82;;;;;;;;;;5068026;28;20088;-60
2023/08/04 02:27:21;;;;;;;0.93;0.60;;;;;;;;;;5063731;28;20741;-62
2023/08/04 02:29:50;;;;;;;1.23;0.63;;;;;;;;;;5057720;28;20067;-60
2023/08/04 02:32:19;;;;;;;0.85;0.60;;;;;;;;;;5068319;28;20049;-60
2023/08/04 02:34:50;;;;;;;2.30;0.80;;;;;;;;;;5059323;28;20072;-60
2023/08/04 02:37:19;;;;;;;3.53;0.70;;;;;;;;;;5063482;28;20041;-63
2023/08/04 02:39:47;;;;;;;2.38;0.70;;;;;;;;;;5061373;28;20044;-63
2023/08/04 02:42:16;;;;;;;1.98;0.70;;;;;;;;;;5054490;28;20049;-60
2023/08/04 02:44:44;;;;;;;1.63;0.80;;;;;;;;;;5062082;28;20044;-61
2023/08/04 02:47:12;;;;;;;1.55;0.70;;;;;;;;;;5057639;28;20482;-63
2023/08/04 02:49:42;;;;;;;2.17;0.77;;;;;;;;;;5063094;28;20151;-60
2023/08/04 02:52:14;;;;;;;1.25;0.60;;;;;;;;;;5060612;28;20608;-61
2023/08/04 02:54:43;;;;;;;1.60;0.77;;;;;;;;;;5055775;28;20095;-60
2023/08/04 02:57:11;;;;;;;1.67;0.77;;;;;;;;;;5066536;28;20080;-67
2023/08/04 02:59:39;;;;;;;2.30;0.70;;;;;;;;;;5049746;28;20419;-62
2023/08/04 03:02:08;;;;;;;1.08;0.65;;;;;;;;;;5062339;28;20165;-62
2023/08/04 03:04:36;;;;;;;2.95;0.75;;;;;;;;;;5060797;28;20071;-62
2023/08/04 03:07:06;;;;;;;2.90;0.80;;;;;;;;;;5064570;28;20094;-61
2023/08/04 03:09:35;;;;;;;2.35;0.55;;;;;;;;;;5062325;28;20045;-60
2023/08/04 03:12:03;;;;;;;2.70;0.93;;;;;;;;;;5066209;28;20052;-61
2023/08/04 03:14:31;;;;;;;1.63;0.80;;;;;;;;;;5065732;28;20135;-60
2023/08/04 03:17:00;;;;;;;2.95;0.75;;;;;;;;;;5052125;28;20090;-60
2023/08/04 03:19:28;;;;;;;1.77;0.70;;;;;;;;;;5066533;28;20055;-59
2023/08/04 03:21:57;;;;;;;2.72;0.77;;;;;;;;;;5066799;28;20133;-60
2023/08/04 03:24:26;;;;;;;4.60;0.50;;;;;;;;;;5064120;28;20044;-63
2023/08/04 03:26:55;;;;;;;0.75;0.52;;;;;;;;;;5053135;28;20094;-64
2023/08/04 03:29:23;;;;;;;1.08;0.77;;;;;;;;;;5061157;28;20142;-61
2023/08/04 03:31:51;;;;;;;2.65;0.70;;;;;;;;;;5063447;28;20319;-59
2023/08/04 03:34:20;;;;;;;1.25;0.65;;;;;;;;;;5061556;28;20052;-61
2023/08/04 03:36:48;;;;;;;3.75;0.65;;;;;;;;;;5057653;28;20049;-60
2023/08/04 03:39:16;;;;;;;2.20;0.93;;;;;;;;;;5065080;28;20049;-63
2023/08/04 03:41:46;;;;;;;0.88;0.50;;;;;;;;;;5060125;28;20049;-60
2023/08/04 03:44:15;;;;;;;3.60;0.80;;;;;;;;;;5058341;28;20041;-60
2023/08/04 03:46:43;;;;;;;1.60;0.77;;;;;;;;;;5066343;28;20079;-60
2023/08/04 03:49:12;;;;;;;0.70;0.60;;;;;;;;;;5063406;28;20380;-60
2023/08/04 03:51:40;;;;;;;0.50;0.50;;;;;;;;;;5062269;28;20141;-59
2023/08/04 03:54:08;;;;;;;0.95;0.70;;;;;;;;;;5053816;28;20103;-60
2023/08/04 03:56:37;;;;;;;0.82;0.50;;;;;;;;;;5065358;28;20052;-60
2023/08/04 03:59:08;;;;;;;1.52;0.60;;;;;;;;;;5057481;28;20045;-62
2023/08/04 04:01:36;;;;;;;1.23;0.40;;;;;;;;;;5055452;28;20115;-60
2023/08/04 04:04:05;;;;;;;1.60;0.68;;;;;;;;;;5037695;28;20055;-64
2023/08/04 04:06:33;;;;;;;2.17;0.60;;;;;;;;;;5042610;28;20048;-60
2023/08/04 04:09:03;;;;;;;1.63;0.50;;;;;;;;;;5035223;28;20045;-61
2023/08/04 04:11:32;;;;;;;2.85;0.70;;;;;;;;;;5046458;28;20409;-60
2023/08/04 04:14:00;;;;;;;0.85;0.50;;;;;;;;;;5039588;28;20049;-63
2023/08/04 04:16:30;;;;;;;2.92;0.60;;;;;;;;;;5046704;28;20045;-61
2023/08/04 04:18:59;;;;;;;3.33;0.70;;;;;;;;;;5042956;28;20103;-60
2023/08/04 04:21:27;;;;;;;1.55;0.65;;;;;;;;;;5031482;28;21313;-61
2023/08/04 04:23:55;;;;;;;3.30;0.65;;;;;;;;;;5040012;28;20500;-60
2023/08/04 04:26:25;;;;;;;2.58;0.70;;;;;;;;;;5040130;28;20087;-60
2023/08/04 04:28:53;;;;;;;2.08;0.60;;;;;;;;;;5035391;28;20049;-61
2023/08/04 04:31:21;;;;;;;4.78;0.75;;;;;;;;;;5033251;28;20088;-61
2023/08/04 04:33:51;;;;;;;1.80;0.55;;;;;;;;;;5041024;28;20566;-59
2023/08/04 04:36:19;;;;;;;3.25;0.68;;;;;;;;;;5045127;28;20045;-59
2023/08/04 04:38:48;;;;;;;0.70;0.57;;;;;;;;;;5044250;28;20429;-63
2023/08/04 04:41:16;;;;;;;1.42;0.57;;;;;;;;;;5042172;28;20553;-60
2023/08/04 04:43:44;;;;;;;0.80;0.60;;;;;;;;;;5051814;28;20129;-60
2023/08/04 04:46:13;;;;;;;1.15;0.50;;;;;;;;;;5048868;28;20061;-59
2023/08/04 04:48:41;;;;;;;2.10;0.50;;;;;;;;;;5040380;28;20041;-59
2023/08/04 04:51:11;;;;;;;1.48;0.50;;;;;;;;;;5032729;28;20452;-61
2023/08/04 04:53:40;;;;;;;1.60;0.57;;;;;;;;;;5038428;28;20080;-59
2023/08/04 04:56:08;;;;;;;1.98;0.60;;;;;;;;;;5050532;28;20513;-60
2023/08/04 04:58:36;;;;;;;0.60;0.50;;;;;;;;;;5045436;28;20048;-62
2023/08/04 05:01:05;;;;;;;1.98;0.80;;;;;;;;;;5041492;28;20067;-59
2023/08/04 05:03:33;;;;;;;1.58;0.60;;;;;;;;;;5057733;28;20456;-60
2023/08/04 05:06:01;;;;;;;0.60;0.50;;;;;;;;;;5060624;28;20091;-61
2023/08/04 05:08:31;;;;;;;1.27;0.80;;;;;;;;;;5062392;28;20052;-62
2023/08/04 05:11:00;;;;;;;1.92;0.52;;;;;;;;;;5065302;28;20116;-61
2023/08/04 05:13:28;;;;;;;2.72;0.43;;;;;;;;;;5062517;28;20106;-60
2023/08/04 05:15:57;;;;;;;0.45;0.30;;;;;;;;;;5062725;28;20109;-60
2023/08/04 05:18:25;;;;;;;3.05;0.88;;;;;;;;;;5059124;28;20548;-63
2023/08/04 05:20:54;;;;;;;1.48;0.60;;;;;;;;;;5063228;28;20361;-62
2023/08/04 05:23:23;;;;;;;2.10;0.77;;;;;;;;;;5057909;28;20084;-63
2023/08/04 05:25:53;;;;;;;3.53;0.82;;;;;;;;;;5063892;28;20076;-61
2023/08/04 05:28:23;;;;;;;1.10;0.40;;;;;;;;;;5066177;28;20048;-59
2023/08/04 05:30:55;;;;;;;1.77;0.65;;;;;;;;;;5065558;28;20048;-62
2023/08/04 05:33:24;;;;;;;0.98;0.50;;;;;;;;;;5060857;28;20110;-67
2023/08/04 05:35:54;;;;;;;2.58;0.65;;;;;;;;;;5059275;28;20049;-59
2023/08/04 05:38:23;;;;;;;1.33;0.63;;;;;;;;;;5067502;28;20048;-60
2023/08/04 05:40:52;;;;;;;0.60;0.50;;;;;;;;;;5063957;28;20040;-63
2023/08/04 05:43:23;;;;;;;3.90;0.60;;;;;;;;;;5067027;28;20045;-62
2023/08/04 05:45:51;;;;;;;1.40;0.57;;;;;;;;;;5062532;28;20076;-62
2023/08/04 05:48:20;;;;;;;1.15;0.60;;;;;;;;;;5069656;28;20037;-60
2023/08/04 05:50:48;;;;;;;0.88;0.55;;;;;;;;;;5069334;28;20098;-60
2023/08/04 05:53:17;;;;;;;1.10;0.60;;;;;;;;;;5068384;28;20052;-63
2023/08/04 05:55:45;;;;;;;3.05;0.75;;;;;;;;;;5062078;28;20044;-61
2023/08/04 05:58:14;;;;;;;1.75;0.60;;;;;;;;;;5064570;28;20052;-60
2023/08/04 06:00:43;;;;;;;2.72;0.98;;;;;;;;;;5066997;28;20052;-60
2023/08/04 06:03:12;;;;;;;0.88;0.40;;;;;;;;;;5063496;28;20127;-60
2023/08/04 06:05:40;;;;;;;1.25;0.70;;;;;;;;;;5061955;28;20080;-59
2023/08/04 06:08:08;;;;;;;0.93;0.43;;;;;;;;;;5058452;28;20056;-59
2023/08/04 06:10:37;;;;;;;3.58;0.70;;;;;;;;;;5066775;28;20053;-61
2023/08/04 06:13:05;;;;;;;2.75;0.65;;;;;;;;;;5064409;28;20097;-60
2023/08/04 06:15:34;;;;;;;4.13;0.63;;;;;;;;;;5063404;28;20048;-63
2023/08/04 06:18:04;;;;;;;1.60;0.63;;;;;;;;;;5060767;28;20074;-60
2023/08/04 06:20:33;;;;;;;2.42;0.57;;;;;;;;;;5061759;28;20430;-63
2023/08/04 06:23:01;;;;;;;2.28;0.80;;;;;;;;;;5055387;28;20110;-61
2023/08/04 06:25:30;;;;;;;1.70;0.70;;;;;;;;;;5058707;28;20060;-60
2023/08/04 06:27:58;;;;;;;1.63;0.68;;;;;;;;;;5067250;28;20441;-60
2023/08/04 06:30:26;;;;;;;3.85;0.73;;;;;;;;;;5065951;28;20140;-64
2023/08/04 06:32:55;;;;;;;0.68;0.40;;;;;;;;;;5063438;28;20090;-60
2023/08/04 06:35:25;;;;;;;1.50;0.68;;;;;;;;;;5054714;28;20049;-60
2023/08/04 06:37:53;;;;;;;2.80;0.70;;;;;;;;;;5063411;28;20088;-64
2023/08/04 06:40:21;;;;;;;2.00;0.50;;;;;;;;;;5066672;28;20092;-60
2023/08/04 06:42:50;;;;;;;3.42;0.50;;;;;;;;;;5069495;28;20045;-60
2023/08/04 06:45:18;;;;;;;1.10;0.60;;;;;;;;;;5064734;28;20048;-60
2023/08/04 06:47:47;;;;;;;0.70;0.45;;;;;;;;;;5065875;28;20071;-62
2023/08/04 06:50:15;;;;;;;3.70;0.60;;;;;;;;;;5066582;28;20075;-61
2023/08/04 06:52:45;;;;;;;5.45;0.50;;;;;;;;;;5069997;28;20102;-60
2023/08/04 06:55:13;;;;;;;1.73;0.60;;;;;;;;;;5062363;28;20468;-60
2023/08/04 06:57:42;;;;;;;2.97;0.63;;;;;;;;;;5065306;28;20127;-63
2023/08/04 07:00:10;;;;;;;2.05;0.68;;;;;;;;;;5063873;28;20484;-61
2023/08/04 07:02:40;;;;;;;2.38;0.73;;;;;;;;;;5061779;28;20609;-63
2023/08/04 07:05:09;;;;;;;0.90;0.55;;;;;;;;;;5061940;28;20501;-60
2023/08/04 07:07:37;;;;;;;0.50;0.50;;;;;;;;;;5063010;28;20105;-61
2023/08/04 07:10:08;;;;;;;1.17;0.50;;;;;;;;;;5067692;28;20040;-61
2023/08/04 07:12:36;;;;;;;4.53;0.82;;;;;;;;;;5061687;28;20052;-60
2023/08/04 07:15:05;;;;;;;1.77;0.40;;;;;;;;;;5065959;28;20101;-61
2023/08/04 07:17:34;;;;;;;1.08;0.52;;;;;;;;;;5062157;28;20048;-60
2023/08/04 07:20:02;;;;;;;1.52;0.70;;;;;;;;;;5057380;28;20489;-60
2023/08/04 07:22:30;;;;;;;1.30;0.52;;;;;;;;;;5050194;28;20448;-61
2023/08/04 07:24:59;;;;;;;1.05;0.55;;;;;;;;;;5056998;28;20060;-61
2023/08/04 07:27:28;;;;;;;2.80;0.77;;;;;;;;;;5062087;28;20055;-63
2023/08/04 07:29:57;;;;;;;3.00;0.70;;;;;;;;;;5066006;28;20122;-60
2023/08/04 07:32:25;;;;;;;0.75;0.60;;;;;;;;;;5050947;28;20048;-60
2023/08/04 07:34:54;;;;;;;1.00;0.52;;;;;;;;;;5060270;28;20053;-61
2023/08/04 07:37:22;;;;;;;1.20;0.60;;;;;;;;;;5064362;28;20358;-63
2023/08/04 07:39:51;;;;;;;3.88;0.60;;;;;;;;;;5067274;28;20044;-60
2023/08/04 07:42:19;;;;;;;1.23;0.60;;;;;;;;;;5056151;28;20489;-60
2023/08/04 07:44:49;;;;;;;0.98;0.60;;;;;;;;;;5060613;28;20424;-61
2023/08/04 07:47:17;;;;;;;1.35;0.70;;;;;;;;;;5056600;28;20044;-62
2023/08/04 07:49:45;;;;;;;2.95;0.77;;;;;;;;;;5057649;28;20063;-65
2023/08/04 07:52:14;;;;;;;1.38;0.68;;;;;;;;;;5058763;28;20363;-61
2023/08/04 07:54:42;;;;;;;1.45;0.75;;;;;;;;;;5065251;28;20138;-61
2023/08/04 07:57:10;;;;;;;1.20;0.65;;;;;;;;;;5064541;28;20149;-60
2023/08/04 07:59:39;;;;;;;1.83;0.60;;;;;;;;;;5063911;28;20088;-66
2023/08/04 08:02:09;;;;;;;2.42;0.57;;;;;;;;;;5063423;28;20544;-60
2023/08/04 08:04:37;;;;;;;2.25;0.50;;;;;;;;;;5056916;28;20117;-61
2023/08/04 08:07:06;;;;;;;1.27;0.65;;;;;;;;;;5057947;28;20053;-60
2023/08/04 08:09:34;;;;;;;2.33;0.57;;;;;;;;;;5062811;28;20041;-61
2023/08/04 08:12:02;;;;;;;1.52;0.77;;;;;;;;;;5063741;28;20438;-62
2023/08/04 08:14:31;;;;;;;0.70;0.45;;;;;;;;;;5069276;28;20052;-62
2023/08/04 08:16:59;;;;;;;5.57;0.70;;;;;;;;;;5065136;28;20040;-62
2023/08/04 08:19:29;;;;;;;1.50;0.52;;;;;;;;;;5064794;28;20055;-61
2023/08/04 08:21:58;;;;;;;1.50;0.70;;;;;;;;;;5067897;28;20501;-63
2023/08/04 08:24:26;;;;;;;0.80;0.45;;;;;;;;;;5067899;28;20118;-64
2023/08/04 08:26:55;;;;;;;0.50;0.40;;;;;;;;;;5067924;28;20364;-62
2023/08/04 08:29:23;;;;;;;1.10;0.55;;;;;;;;;;5061979;28;20045;-61
2023/08/04 08:31:52;;;;;;;1.52;0.50;;;;;;;;;;5068246;28;20048;-63
2023/08/04 08:34:20;;;;;;;1.42;0.82;;;;;;;;;;5068058;28;20554;-61
2023/08/04 08:36:50;;;;;;;1.27;0.60;;;;;;;;;;5065664;28;20048;-61
2023/08/04 08:39:19;;;;;;;1.88;0.68;;;;;;;;;;5059624;28;20106;-62
2023/08/04 08:41:47;;;;;;;1.42;0.60;;;;;;;;;;5062401;28;20049;-60
2023/08/04 08:44:16;;;;;;;4.10;0.73;;;;;;;;;;5069021;28;20595;-60
2023/08/04 08:46:44;;;;;;;1.27;0.60;;;;;;;;;;5064407;28;20210;-61
2023/08/04 08:49:13;;;;;;;2.97;0.60;;;;;;;;;;5065250;28;20056;-63
2023/08/04 08:51:43;;;;;;;2.25;0.68;;;;;;;;;;5062403;28;20072;-61
2023/08/04 08:54:14;;;;;;;0.95;0.55;;;;;;;;;;5063860;28;20072;-61
2023/08/04 08:56:42;;;;;;;0.70;0.47;;;;;;;;;;5066092;28;20082;-60
2023/08/04 08:59:10;;;;;;;2.42;0.47;;;;;;;;;;5067574;28;20487;-59
2023/08/04 09:01:39;;;;;;;1.30;0.55;;;;;;;;;;5064650;28;20088;-60
2023/08/04 09:04:07;;;;;;;1.80;0.63;;;;;;;;;;5066179;28;20048;-60
2023/08/04 09:06:36;;;;;;;4.30;0.80;;;;;;;;;;5067871;28;20044;-62
2023/08/04 09:09:05;;;;;;;1.45;0.85;;;;;;;;;;5062865;28;20388;-63
2023/08/04 09:11:34;;;;;;;1.63;0.60;;;;;;;;;;5068656;28;20475;-62
2023/08/04 09:14:04;;;;;;;0.60;0.50;;;;;;;;;;5050897;28;20494;-59
2023/08/04 09:16:33;;;;;;;5.13;0.93;;;;;;;;;;5059895;28;20045;-62
2023/08/04 09:19:04;;;;;;;0.82;0.40;;;;;;;;;;5065570;28;20445;-61
2023/08/04 09:21:33;;;;;;;1.00;0.60;;;;;;;;;;5060384;28;20132;-59
2023/08/04 09:24:02;;;;;;;1.30;0.52;;;;;;;;;;5062442;28;20123;-60
2023/08/04 09:26:41;;;;;;;2.00;0.40;;;;;;;;;;5065582;28;20044;-61
2023/08/04 09:29:11;;;;;;;2.17;0.45;;;;;;;;;;5058111;28;20049;-62
2023/08/04 09:31:40;;;;;;;1.05;0.50;;;;;;;;;;5060605;28;20049;-61
2023/08/04 09:34:09;;;;;;;1.88;0.80;;;;;;;;;;5058157;28;20114;-60
2023/08/04 09:36:39;;;;;;;2.78;0.60;;;;;;;;;;5067955;28;20488;-62
2023/08/04 09:39:09;;;;;;;0.95;0.40;;;;;;;;;;5061193;28;20105;-62
2023/08/04 09:41:39;;;;;;;0.85;0.70;;;;;;;;;;5058847;28;20394;-60
2023/08/04 09:44:08;;;;;;;0.82;0.50;;;;;;;;;;5057890;28;20491;-61
2023/08/04 09:46:41;;;;;;;1.30;0.60;;;;;;;;;;5062085;28;20072;-61
2023/08/04 09:49:11;;;;;;;2.47;0.82;;;;;;;;;;5061215;28;20088;-60
2023/08/04 09:51:41;;;;;;;3.55;0.63;;;;;;;;;;5065271;28;20110;-61
2023/08/04 09:54:10;;;;;;;1.42;0.77;;;;;;;;;;5062982;28;20064;-59
2023/08/04 09:56:38;;;;;;;2.33;0.68;;;;;;;;;;5057958;28;20064;-61
2023/08/04 09:59:07;;;;;;;1.10;0.65;;;;;;;;;;5061705;28;20056;-59
2023/08/04 10:01:35;;;;;;;1.58;0.73;;;;;;;;;;5060283;28;20047;-59
2023/08/04 10:04:06;;;;;;;3.28;0.57;;;;;;;;;;5057010;28;20122;-60
2023/08/04 10:06:35;;;;;;;0.98;0.55;;;;;;;;;;5065414;28;20044;-60
2023/08/04 10:09:04;;;;;;;1.20;0.60;;;;;;;;;;5058738;28;20052;-59
2023/08/04 10:11:33;;;;;;;1.50;0.60;;;;;;;;;;5060487;28;20048;-59
2023/08/04 10:14:04;;;;;;;1.65;0.50;;;;;;;;;;5056828;28;20041;-64
2023/08/04 10:16:34;;;;;;;1.25;0.35;;;;;;;;;;5060773;28;20044;-59
2023/08/04 10:19:05;;;;;;;0.93;0.40;;;;;;;;;;5058109;28;20336;-60
2023/08/04 10:21:35;;;;;;;1.30;0.50;;;;;;;;;;5058041;28;20269;-60
2023/08/04 10:24:11;;;;;;;0.95;0.60;;;;;;;;;;5055842;28;20404;-62
2023/08/04 10:26:45;;;;;;;1.05;0.60;;;;;;;;;;5063232;28;20054;-62
2023/08/04 10:29:14;;;;;;;1.67;0.57;;;;;;;;;;5057342;28;20049;-59
2023/08/04 10:31:51;;;;;;;2.22;0.55;;;;;;;;;;5057063;28;20045;-60
2023/08/04 10:34:25;;;;;;;1.40;0.50;;;;;;;;;;5057626;28;20044;-60
2023/08/04 10:37:04;;;;;;;0.98;0.40;;;;;;;;;;5059253;28;20053;-62
2023/08/04 10:39:33;;;;;;;1.02;0.50;;;;;;;;;;5051603;28;20053;-61
2023/08/04 10:42:04;;;;;;;1.25;0.50;;;;;;;;;;5059733;28;20052;-60
2023/08/04 10:44:48;;;;;;;0.77;0.40;;;;;;;;;;5052844;28;20063;-60
2023/08/04 10:47:17;;;;;;;1.58;0.50;;;;;;;;;;5060412;28;20076;-61
2023/08/04 10:49:45;;;;;;;1.50;0.60;;;;;;;;;;5062021;28;20051;-61
2023/08/04 10:52:15;;;;;;;4.45;0.70;;;;;;;;;;5062601;28;20055;-62
2023/08/04 10:54:44;;;;;;;1.88;0.90;;;;;;;;;;5061742;28;20143;-60
2023/08/04 10:57:18;;;;;;;2.60;0.60;;;;;;;;;;5062304;28;20560;-60
2023/08/04 10:59:47;;;;;;;2.45;0.50;;;;;;;;;;5063078;28;20140;-61
2023/08/04 11:02:17;;;;;;;1.20;0.60;;;;;;;;;;5062329;28;20048;-61
2023/08/04 11:04:47;;;;;;;1.33;0.60;;;;;;;;;;5059685;28;20138;-61
2023/08/04 11:07:18;;;;;;;1.30;0.50;;;;;;;;;;5059747;28;20451;-59
2023/08/04 11:09:47;;;;;;;1.02;0.60;;;;;;;;;;5058299;28;20463;-62
2023/08/04 11:12:15;;;;;;;1.30;0.60;;;;;;;;;;5058797;28;20981;-60
2023/08/04 11:14:45;;;;;;;2.92;0.70;;;;;;;;;;5059404;28;20065;-61
2023/08/04 11:17:13;;;;;;;0.50;0.32;;;;;;;;;;5061785;28;20075;-60
2023/08/04 11:19:43;;;;;;;2.35;0.57;;;;;;;;;;5063700;28;20075;-59
2023/08/04 11:22:13;;;;;;;0.70;0.50;;;;;;;;;;5059003;28;20455;-60
2023/08/04 11:24:44;;;;;;;0.63;0.63;;;;;;;;;;5059178;28;20049;-61
2023/08/04 11:27:13;;;;;;;1.42;0.60;;;;;;;;;;5065159;28;20086;-61
2023/08/04 11:29:41;;;;;;;1.73;0.60;;;;;;;;;;5062614;28;20094;-61
2023/08/04 11:32:10;;;;;;;0.65;0.50;;;;;;;;;;5062048;28;20122;-60
2023/08/04 11:34:41;;;;;;;3.05;0.50;;;;;;;;;;5059110;28;20161;-60
2023/08/04 11:37:09;;;;;;;1.67;0.55;;;;;;;;;;5066489;28;20049;-66
2023/08/04 11:39:40;;;;;;;4.13;0.77;;;;;;;;;;5058961;28;20098;-60
2023/08/04 11:42:12;;;;;;;1.63;0.50;;;;;;;;;;5066194;28;20490;-60
2023/08/04 11:44:41;;;;;;;1.42;0.60;;;;;;;;;;5058106;28;20049;-60
2023/08/04 11:47:09;;;;;;;0.70;0.57;;;;;;;;;;5061070;28;20102;-60
2023/08/04 11:49:40;;;;;;;1.90;0.60;;;;;;;;;;5058879;28;20053;-60
2023/08/04 11:52:09;;;;;;;2.55;0.43;;;;;;;;;;5061900;28;20339;-59
2023/08/04 11:54:38;;;;;;;1.15;0.50;;;;;;;;;;5062481;28;20485;-60
2023/08/04 11:57:06;;;;;;;0.82;0.47;;;;;;;;;;5056886;28;20076;-59
2023/08/04 11:59:47;;;;;;;0.82;0.60;;;;;;;;;;5057210;28;20321;-60
2023/08/04 12:02:15;;;;;;;0.70;0.50;;;;;;;;;;5061205;28;20049;-61
2023/08/04 12:04:44;;;;;;;0.75;0.55;;;;;;;;;;5067239;28;20054;-61
2023/08/04 12:07:15;;;;;;;1.25;0.75;;;;;;;;;;5058956;28;20047;-59
2023/08/04 12:09:46;;;;;;;0.88;0.50;;;;;;;;;;5062744;28;20497;-61
2023/08/04 12:12:15;;;;;;;0.85;0.52;;;;;;;;;;5062654;28;20578;-60
2023/08/04 12:14:58;;;;;;;1.85;0.80;;;;;;;;;;5060530;28;20056;-60
2023/08/04 12:17:37;;;;;;;2.45;0.77;;;;;;;;;;5068173;28;20083;-60
2023/08/04 12:20:06;;;;;;;1.73;0.70;;;;;;;;;;5049587;28;20119;-60
2023/08/04 12:22:36;;;;;;;1.35;0.55;;;;;;;;;;5054189;28;20056;-63
2023/08/04 12:25:05;;;;;;;1.88;0.52;;;;;;;;;;5056684;28;20108;-60
2023/08/04 12:27:33;;;;;;;0.93;0.50;;;;;;;;;;5052424;28;21104;-61
2023/08/04 12:30:02;;;;;;;1.98;0.65;;;;;;;;;;5059939;28;20111;-60
2023/08/04 12:32:30;;;;;;;1.23;0.50;;;;;;;;;;5057193;28;20094;-59
2023/08/04 12:35:00;;;;;;;2.00;0.60;;;;;;;;;;5050806;28;20075;-61
2023/08/04 12:37:29;;;;;;;0.50;0.40;;;;;;;;;;5065790;28;20057;-60
2023/08/04 12:39:57;;;;;;;0.93;0.55;;;;;;;;;;5068743;28;20045;-61
2023/08/04 12:42:25;;;;;;;0.63;0.50;;;;;;;;;;5064940;28;20450;-60
2023/08/04 12:44:54;;;;;;;1.98;0.52;;;;;;;;;;5056069;28;20067;-61
2023/08/04 12:47:22;;;;;;;3.28;0.70;;;;;;;;;;5062627;28;20045;-61
2023/08/04 12:49:51;;;;;;;0.98;0.70;;;;;;;;;;5069411;28;20568;-63
2023/08/04 12:52:21;;;;;;;1.05;0.60;;;;;;;;;;5053108;28;20044;-63
2023/08/04 12:54:49;;;;;;;1.40;0.50;;;;;;;;;;5057208;28;20040;-65
2023/08/04 12:57:17;;;;;;;2.78;0.50;;;;;;;;;;5057136;28;20416;-61
2023/08/04 12:59:46;;;;;;;0.70;0.50;;;;;;;;;;5071566;28;20044;-59
2023/08/04 13:02:14;;;;;;;2.78;0.60;;;;;;;;;;5062178;28;20421;-60
2023/08/04 13:04:43;;;;;;;0.77;0.43;;;;;;;;;;5058991;28;20060;-60
2023/08/04 13:07:11;;;;;;;3.22;0.80;;;;;;;;;;5072725;28;20070;-60
2023/08/04 13:09:41;;;;;;;1.85;0.65;;;;;;;;;;5063889;28;20053;-62
2023/08/04 13:12:09;;;;;;;1.40;1.15;;;;;;;;;;5062890;28;20440;-59
2023/08/04 13:14:38;;;;;;;1.05;0.43;;;;;;;;;;5061944;28;20102;-60
2023/08/04 13:17:06;;;;;;;1.90;0.47;;;;;;;;;;5063620;28;20110;-61
2023/08/04 13:19:35;;;;;;;0.68;0.57;;;;;;;;;;5066891;28;20156;-61
2023/08/04 13:22:03;;;;;;;1.38;0.50;;;;;;;;;;5059430;28;20052;-60
2023/08/04 13:24:32;;;;;;;1.30;0.70;;;;;;;;;;5058051;28;20494;-59
2023/08/04 13:27:05;;;;;;;0.88;0.40;;;;;;;;;;5053230;28;20463;-59
2023/08/04 13:29:33;;;;;;;2.20;0.57;;;;;;;;;;5059769;28;20041;-60
2023/08/04 13:32:01;;;;;;;1.00;0.60;;;;;;;;;;5064385;28;20041;-61
2023/08/04 13:34:30;;;;;;;1.02;0.60;;;;;;;;;;5070470;28;20048;-60
2023/08/04 13:36:58;;;;;;;3.08;0.90;;;;;;;;;;5065937;28;20049;-66
2023/08/04 13:39:27;;;;;;;1.38;0.60;;;;;;;;;;5067734;28;20105;-60
2023/08/04 13:41:55;;;;;;;1.38;0.77;;;;;;;;;;5062911;28;20489;-60
2023/08/04 13:44:25;;;;;;;3.67;0.60;;;;;;;;;;5056802;28;20049;-60
2023/08/04 13:46:53;;;;;;;1.33;0.52;;;;;;;;;;5062528;28;20074;-59
2023/08/04 13:49:25;;;;;;;1.85;0.70;;;;;;;;;;5062758;28;20047;-59
2023/08/04 13:51:54;;;;;;;2.08;0.70;;;;;;;;;;5066200;28;20040;-61
2023/08/04 13:54:22;;;;;;;1.38;0.50;;;;;;;;;;5056894;28;20350;-62
2023/08/04 13:56:51;;;;;;;1.10;0.60;;;;;;;;;;5072744;28;20621;-60
2023/08/04 13:59:19;;;;;;;1.40;0.60;;;;;;;;;;5069757;28;20037;-59
2023/08/04 14:01:49;;;;;;;3.03;0.65;;;;;;;;;;5069130;28;20078;-60
2023/08/04 14:04:18;;;;;;;2.58;0.80;;;;;;;;;;5070500;28;20131;-60
2023/08/04 14:06:47;;;;;;;2.47;0.60;;;;;;;;;;5067878;28;20353;-60
2023/08/04 14:09:16;;;;;;;1.45;0.60;;;;;;;;;;5070943;28;20348;-60
2023/08/04 14:11:44;;;;;;;2.85;0.65;;;;;;;;;;5062391;28;20052;-59
2023/08/04 14:14:12;;;;;;;0.60;0.45;;;;;;;;;;5058945;28;20123;-59
2023/08/04 14:16:41;;;;;;;1.42;0.68;;;;;;;;;;5063392;28;20052;-62
2023/08/04 14:19:11;;;;;;;1.83;0.60;;;;;;;;;;5068205;28;20052;-61
2023/08/04 14:21:39;;;;;;;1.40;0.52;;;;;;;;;;5063416;28;20130;-62
2023/08/04 14:24:08;;;;;;;1.50;0.60;;;;;;;;;;5061865;28;20508;-59
2023/08/04 14:26:36;;;;;;;0.98;0.52;;;;;;;;;;5073887;28;20692;-59
2023/08/04 14:29:05;;;;;;;4.00;0.98;;;;;;;;;;5064689;28;20041;-60
2023/08/04 14:31:33;;;;;;;1.10;0.60;;;;;;;;;;5056329;28;20044;-60
2023/08/04 14:34:02;;;;;;;2.30;0.70;;;;;;;;;;5065604;28;20127;-61
2023/08/04 14:36:32;;;;;;;1.13;0.60;;;;;;;;;;5060049;28;20456;-59
2023/08/04 14:39:01;;;;;;;2.17;0.70;;;;;;;;;;5075370;28;20048;-59
2023/08/04 14:41:29;;;;;;;2.58;0.65;;;;;;;;;;5070383;28;20075;-59
2023/08/04 14:43:57;;;;;;;0.70;0.47;;;;;;;;;;5059878;28;20125;-60
2023/08/04 14:46:26;;;;;;;1.58;0.63;;;;;;;;;;5063787;28;20041;-60
2023/08/04 14:48:54;;;;;;;2.58;0.60;;;;;;;;;;5066673;28;20110;-59
2023/08/04 14:51:23;;;;;;;3.67;0.60;;;;;;;;;;5065195;28;20041;-58
2023/08/04 14:53:53;;;;;;;1.48;0.70;;;;;;;;;;5062271;28;20045;-61